Date,TemperatureHighF,TemperatureAvgF,TemperatureLowF,DewpointHighF,DewpointAvgF,DewpointLowF,HumidityHigh,HumidityAvg,HumidityLow,PressureMaxIn,PressureMinIn,WindSpeedMaxMPH,WindSpeedAvgMPH,GustSpeedMaxMPH,PrecipitationSumIn
2013-8-6,93,87,80,74,71,65,79,61,43,29.97,29.93,18,7,18,0.00
2013-8-7,94,85,75,77,72,68,82,66,48,29.96,29.91,17,4,17,0.00
2013-8-8,96,85,77,76,72,69,81,67,44,29.96,29.90,20,4,20,0.00
2013-8-9,96,80,70,75,68,61,81,68,33,29.92,29.79,32,7,32,0.15
2013-8-10,88,77,68,66,62,60,77,60,45,29.90,29.81,22,6,22,0.01
2013-8-11,95,81,72,70,63,60,77,57,32,29.94,29.88,18,5,18,0.00
2013-8-12,90,81,75,72,66,61,77,60,46,29.99,29.93,21,6,21,0.00
2013-8-13,90,80,71,70,68,66,85,70,50,29.99,29.94,20,5,20,0.00
2013-8-14,88,79,73,73,68,61,85,70,48,29.96,29.89,24,6,24,0.00
2013-8-15,91,84,74,66,64,62,70,52,41,30.02,29.91,16,9,16,0.00
2013-8-16,94,81,73,67,62,57,69,55,32,30.03,29.96,21,8,21,0.00
2013-8-17,92,81,75,69,65,60,74,58,41,30.02,29.97,20,5,20,0.00
2013-8-18,91,81,72,71,66,61,81,63,38,30.06,29.99,20,5,20,0.00
2013-8-19,91,80,72,71,68,61,86,69,38,30.04,29.95,18,5,18,0.00
2013-8-20,85,77,72,70,66,59,84,69,49,29.98,29.89,23,7,23,0.35
2013-8-21,86,79,71,65,61,58,69,55,46,29.98,29.92,31,12,31,0.00
2013-8-22,94,79,72,69,62,57,75,57,34,29.98,29.90,25,7,25,0.00
2013-8-23,89,80,72,70,66,61,81,64,42,29.99,29.94,20,5,20,0.00
2013-8-24,87,79,72,70,66,60,83,66,41,29.99,29.90,20,6,20,0.00
2013-8-25,81,74,66,69,65,62,88,75,59,29.92,29.83,31,4,31,0.59
2013-8-26,85,77,69,68,65,62,85,67,48,29.89,29.82,17,4,17,0.00
2013-8-27,84,75,69,71,67,64,87,77,61,29.89,29.78,23,5,23,0.41
2013-8-28,83,74,67,68,64,60,88,72,49,29.98,29.85,23,5,23,0.01
2013-8-29,82,74,66,66,62,59,84,67,47,30.07,29.98,13,3,13,0.00
2013-8-30,85,76,69,62,58,55,72,56,40,30.06,29.95,20,9,20,0.00
2013-8-31,88,77,68,58,54,50,58,46,29,30.06,29.97,17,6,17,0.00